sensor_id;sensor_type;location;lat;lon;timestamp;pressure;altitude;pressure_sealevel;temperature;humidity
44734;BME280;30462;52.446;-1.930;2023-04-25T00:00:18;100277.582;;;;
44734;BME280;30462;52.446;-1.930;2023-04-25T00:01:18;100279.5234;;;;
44734;BME280;30462;52.446;-1.930;2023-04-25T00:02:18;100280.8203;;;;
44734;BME280;30462;52.446;-1.930;2023-04-25T00:03:18;100279.3555;;;;
44734;BME280;30462;52.446;-1.930;2023-04-25T00:04:18;100278.8477;;;;
44734;BME280;30462;52.446;-1.930;2023-04-25T00:05:18;100278.207;;;;
44734;BME280;30462;52.446;-1.930;2023-04-25T00:06:18;100275.582;;;;
44734;BME280;30462;52.446;-1.930;2023-04-25T00:07:18;100275.0508;;;;
44734;BME280;30462;52.446;-1.930;2023-04-25T00:08:18;100270.5547;;;;
44734;BME280;30462;52.446;-1.930;2023-04-25T00:09:18;100275.4219;;;;
44734;BME280;30462;52.446;-1.930;2023-04-25T00:10:18;100271.543;;;;
44734;BME280;30462;52.446;-1.930;2023-04-25T00:11:18;100269.125;;;;
44734;BME280;30462;52.446;-1.930;2023-04-25T00:12:18;100274.1992;;;;
44734;BME280;30462;52.446;-1.930;2023-04-25T00:13:18;100277.2344;;;;
44734;BME280;30462;52.446;-1.930;2023-04-25T00:14:18;100271.2852;;;;
44734;BME280;30462;52.446;-1.930;2023-04-25T00:15:18;100277.5;;;;
44734;BME280;30462;52.446;-1.930;2023-04-25T00:16:18;100278.7969;;;;
44734;BME280;30462;52.446;-1.930;2023-04-25T00:17:18;100280.2734;;;;
44734;BME280;30462;52.446;-1.930;2023-04-25T00:18:17;100277.9141;;;;
44734;BME280;30462;52.446;-1.930;2023-04-25T00:19:18;100275.3633;;;;
44734;BME280;30462;52.446;-1.930;2023-04-25T00:20:18;100275.3633;;;;
44734;BME280;30462;52.446;-1.930;2023-04-25T00:21:17;100274.2227;;;;
44734;BME280;30462;52.446;-1.930;2023-04-25T00:22:18;100274.1641;;;;
44734;BME280;30462;52.446;-1.930;2023-04-25T00:23:18;100274.6289;;;;
44734;BME280;30462;52.446;-1.930;2023-04-25T00:24:18;100275.2539;;;;
44734;BME280;30462;52.446;-1.930;2023-04-25T00:25:18;100272.1758;;;;
44734;BME280;30462;52.446;-1.930;2023-04-25T00:26:18;100271.0234;;;;
44734;BME280;30462;52.446;-1.930;2023-04-25T00:27:18;100271.1992;;;;
44734;BME280;30462;52.446;-1.930;2023-04-25T00:28:18;100274.7617;;;;
44734;BME280;30462;52.446;-1.930;2023-04-25T00:29:18;100277.3516;;;;
44734;BME280;30462;52.446;-1.930;2023-04-25T00:30:18;100274.9258;;;;
44734;BME280;30462;52.446;-1.930;2023-04-25T00:31:18;100273.1836;;;;
44734;BME280;30462;52.446;-1.930;2023-04-25T00:32:18;100272.9258;;;;
44734;BME280;30462;52.446;-1.930;2023-04-25T00:33:17;100272.9258;;;;
44734;BME280;30462;52.446;-1.930;2023-04-25T00:34:18;100273.4492;;;;
44734;BME280;30462;52.446;-1.930;2023-04-25T00:35:18;100271.1367;;;;
44734;BME280;30462;52.446;-1.930;2023-04-25T00:36:18;100271.5625;;;;
44734;BME280;30462;52.446;-1.930;2023-04-25T00:37:18;100269.2969;;;;
44734;BME280;30462;52.446;-1.930;2023-04-25T00:38:18;100270.1836;;;;
44734;BME280;30462;52.446;-1.930;2023-04-25T00:39:18;100272.8086;;;;
44734;BME280;30462;52.446;-1.930;2023-04-25T00:40:18;100272.9023;;;;
44734;BME280;30462;52.446;-1.930;2023-04-25T00:41:18;100273.7383;;;;
44734;BME280;30462;52.446;-1.930;2023-04-25T00:42:18;100273.1641;;;;
44734;BME280;30462;52.446;-1.930;2023-04-25T00:43:18;100271.3086;;;;
44734;BME280;30462;52.446;-1.930;2023-04-25T00:44:18;100271.3555;;;;
44734;BME280;30462;52.446;-1.930;2023-04-25T00:45:18;100269.7969;;;;
44734;BME280;30462;52.446;-1.930;2023-04-25T00:46:17;100269.2813;;;;
44734;BME280;30462;52.446;-1.930;2023-04-25T00:47:18;100269.9258;;;;
44734;BME280;30462;52.446;-1.930;2023-04-25T00:48:19;100269.4219;;;;
44734;BME280;30462;52.446;-1.930;2023-04-25T00:49:18;100272.2383;;;;
44734;BME280;30462;52.446;-1.930;2023-04-25T00:50:18;100275.7109;;;;
44734;BME280;30462;52.446;-1.930;2023-04-25T00:51:19;100275.2266;;;;
44734;BME280;30462;52.446;-1.930;2023-04-25T00:52:18;100275.3711;;;;
44734;BME280;30462;52.446;-1.930;2023-04-25T00:53:18;100274.4922;;;;
44734;BME280;30462;52.446;-1.930;2023-04-25T00:54:18;100275.293;;;;
44734;BME280;30462;52.446;-1.930;2023-04-25T00:55:18;100274.7852;;;;
44734;BME280;30462;52.446;-1.930;2023-04-25T00:56:18;100276.2969;;;;
44734;BME280;30462;52.446;-1.930;2023-04-25T00:57:18;100278.5938;;;;
44734;BME280;30462;52.446;-1.930;2023-04-25T00:58:18;100281.2891;;;;
44734;BME280;30462;52.446;-1.930;2023-04-25T00:59:19;100281.3633;;;;
44734;BME280;30462;52.446;-1.930;2023-04-25T01:00:18;100283.5703;;;;
44734;BME280;30462;52.446;-1.930;2023-04-25T01:01:18;100282.832;;;;
44734;BME280;30462;52.446;-1.930;2023-04-25T01:02:18;100278.2891;;;;
44734;BME280;30462;52.446;-1.930;2023-04-25T01:03:18;100281.8555;;;;
44734;BME280;30462;52.446;-1.930;2023-04-25T01:04:17;100280.5117;;;;
44734;BME280;30462;52.446;-1.930;2023-04-25T01:05:18;100280.0898;;;;
44734;BME280;30462;52.446;-1.930;2023-04-25T01:06:18;100287.5859;;;;
44734;BME280;30462;52.446;-1.930;2023-04-25T01:07:18;100287.25;;;;
44734;BME280;30462;52.446;-1.930;2023-04-25T01:08:18;100287.0859;;;;
44734;BME280;30462;52.446;-1.930;2023-04-25T01:09:18;100288.9414;;;;
44734;BME280;30462;52.446;-1.930;2023-04-25T01:10:18;100288.0352;;;;
44734;BME280;30462;52.446;-1.930;2023-04-25T01:11:18;100289.543;;;;
44734;BME280;30462;52.446;-1.930;2023-04-25T01:12:18;100287.2617;;;;
44734;BME280;30462;52.446;-1.930;2023-04-25T01:13:18;100289.8242;;;;
44734;BME280;30462;52.446;-1.930;2023-04-25T01:14:18;100286.2734;;;;
44734;BME280;30462;52.446;-1.930;2023-04-25T01:15:18;100291.2813;;;;
44734;BME280;30462;52.446;-1.930;2023-04-25T01:16:18;100287.3633;;;;
44734;BME280;30462;52.446;-1.930;2023-04-25T01:17:18;100286.4141;;;;
44734;BME280;30462;52.446;-1.930;2023-04-25T01:18:19;100287.3672;;;;
44734;BME280;30462;52.446;-1.930;2023-04-25T01:19:17;100286.0625;;;;
44734;BME280;30462;52.446;-1.930;2023-04-25T01:20:18;100283.3516;;;;
44734;BME280;30462;52.446;-1.930;2023-04-25T01:21:18;100284.4609;;;;
44734;BME280;30462;52.446;-1.930;2023-04-25T01:22:18;100282.7734;;;;
44734;BME280;30462;52.446;-1.930;2023-04-25T01:23:18;100280.0547;;;;
44734;BME280;30462;52.446;-1.930;2023-04-25T01:24:18;100281.2383;;;;
44734;BME280;30462;52.446;-1.930;2023-04-25T01:25:18;100282.3242;;;;
44734;BME280;30462;52.446;-1.930;2023-04-25T01:26:18;100284.9219;;;;
44734;BME280;30462;52.446;-1.930;2023-04-25T01:27:18;100283.7656;;;;
44734;BME280;30462;52.446;-1.930;2023-04-25T01:28:18;100285.7656;;;;
44734;BME280;30462;52.446;-1.930;2023-04-25T01:29:18;100286.1094;;;;
44734;BME280;30462;52.446;-1.930;2023-04-25T01:30:18;100287.8516;;;;
44734;BME280;30462;52.446;-1.930;2023-04-25T01:31:18;100286.918;;;;
44734;BME280;30462;52.446;-1.930;2023-04-25T01:32:17;100290.0469;;;;
44734;BME280;30462;52.446;-1.930;2023-04-25T01:33:18;100290.625;;;;
44734;BME280;30462;52.446;-1.930;2023-04-25T01:34:18;100293.0938;;;;
44734;BME280;30462;52.446;-1.930;2023-04-25T01:35:17;100293.5781;;;;
44734;BME280;30462;52.446;-1.930;2023-04-25T01:36:18;100295.8945;;;;
44734;BME280;30462;52.446;-1.930;2023-04-25T01:37:18;100293.6914;;;;
44734;BME280;30462;52.446;-1.930;2023-04-25T01:38:18;100298.3281;;;;
44734;BME280;30462;52.446;-1.930;2023-04-25T01:39:18;100298.9805;;;;
44734;BME280;30462;52.446;-1.930;2023-04-25T01:40:18;100301.3242;;;;
44734;BME280;30462;52.446;-1.930;2023-04-25T01:41:18;100299.8672;;;;
44734;BME280;30462;52.446;-1.930;2023-04-25T01:42:17;100305.0273;;;;
44734;BME280;30462;52.446;-1.930;2023-04-25T01:43:18;100301.2773;;;;
44734;BME280;30462;52.446;-1.930;2023-04-25T01:44:18;100301.0156;;;;
44734;BME280;30462;52.446;-1.930;2023-04-25T01:45:18;100304.4453;;;;
44734;BME280;30462;52.446;-1.930;2023-04-25T01:46:19;100299.9023;;;;
44734;BME280;30462;52.446;-1.930;2023-04-25T01:47:18;100299.8281;;;;
44734;BME280;30462;52.446;-1.930;2023-04-25T01:48:18;100299.1836;;;;
44734;BME280;30462;52.446;-1.930;2023-04-25T01:49:17;100300.6523;;;;
44734;BME280;30462;52.446;-1.930;2023-04-25T01:50:18;100301.5313;;;;
44734;BME280;30462;52.446;-1.930;2023-04-25T01:51:18;100302.4336;;;;
44734;BME280;30462;52.446;-1.930;2023-04-25T01:52:18;100301.6055;;;;
44734;BME280;30462;52.446;-1.930;2023-04-25T01:53:18;100299.125;;;;
44734;BME280;30462;52.446;-1.930;2023-04-25T01:54:18;100296.1953;;;;
44734;BME280;30462;52.446;-1.930;2023-04-25T01:55:18;100292.1133;;;;
44734;BME280;30462;52.446;-1.930;2023-04-25T01:56:18;100292.7773;;;;
44734;BME280;30462;52.446;-1.930;2023-04-25T01:57:18;100293.1406;;;;
44734;BME280;30462;52.446;-1.930;2023-04-25T01:58:18;100295.6758;;;;
44734;BME280;30462;52.446;-1.930;2023-04-25T01:59:18;100294.4219;;;;
44734;BME280;30462;52.446;-1.930;2023-04-25T02:00:18;100295.6992;;;;
44734;BME280;30462;52.446;-1.930;2023-04-25T02:01:18;100299.6406;;;;
44734;BME280;30462;52.446;-1.930;2023-04-25T02:02:18;100298.9648;;;;
44734;BME280;30462;52.446;-1.930;2023-04-25T02:03:18;100301.9961;;;;
44734;BME280;30462;52.446;-1.930;2023-04-25T02:04:18;100305.4492;;;;
44734;BME280;30462;52.446;-1.930;2023-04-25T02:05:18;100305.9375;;;;
44734;BME280;30462;52.446;-1.930;2023-04-25T02:06:18;100306.7305;;;;
44734;BME280;30462;52.446;-1.930;2023-04-25T02:07:18;100307.75;;;;
44734;BME280;30462;52.446;-1.930;2023-04-25T02:08:18;100309.8047;;;;
44734;BME280;30462;52.446;-1.930;2023-04-25T02:09:18;100315.6914;;;;
44734;BME280;30462;52.446;-1.930;2023-04-25T02:10:18;100313.7461;;;;
44734;BME280;30462;52.446;-1.930;2023-04-25T02:11:18;100314.9453;;;;
44734;BME280;30462;52.446;-1.930;2023-04-25T02:12:18;100314.5273;;;;
44734;BME280;30462;52.446;-1.930;2023-04-25T02:13:18;100317.8477;;;;
44734;BME280;30462;52.446;-1.930;2023-04-25T02:14:18;100315.7813;;;;
44734;BME280;30462;52.446;-1.930;2023-04-25T02:15:18;100317.0625;;;;
44734;BME280;30462;52.446;-1.930;2023-04-25T02:16:18;100318.1719;;;;
44734;BME280;30462;52.446;-1.930;2023-04-25T02:17:18;100317.4961;;;;
44734;BME280;30462;52.446;-1.930;2023-04-25T02:18:18;100317.5508;;;;
44734;BME280;30462;52.446;-1.930;2023-04-25T02:19:18;100317.7031;;;;
44734;BME280;30462;52.446;-1.930;2023-04-25T02:20:18;100317.4961;;;;
44734;BME280;30462;52.446;-1.930;2023-04-25T02:21:18;100316.418;;;;
44734;BME280;30462;52.446;-1.930;2023-04-25T02:22:18;100319.043;;;;
44734;BME280;30462;52.446;-1.930;2023-04-25T02:23:18;100323.7148;;;;
44734;BME280;30462;52.446;-1.930;2023-04-25T02:24:18;100330.4375;;;;
44734;BME280;30462;52.446;-1.930;2023-04-25T02:25:18;100333.3516;;;;
44734;BME280;30462;52.446;-1.930;2023-04-25T02:26:18;100332.5273;;;;
44734;BME280;30462;52.446;-1.930;2023-04-25T02:27:18;100334.5625;;;;
44734;BME280;30462;52.446;-1.930;2023-04-25T02:28:18;100335.3164;;;;
44734;BME280;30462;52.446;-1.930;2023-04-25T02:29:18;100332.4688;;;;
44734;BME280;30462;52.446;-1.930;2023-04-25T02:30:18;100332.8125;;;;
44734;BME280;30462;52.446;-1.930;2023-04-25T02:31:17;100331.2773;;;;
44734;BME280;30462;52.446;-1.930;2023-04-25T02:32:17;100331.3477;;;;
44734;BME280;30462;52.446;-1.930;2023-04-25T02:33:18;100328.0156;;;;
44734;BME280;30462;52.446;-1.930;2023-04-25T02:34:17;100330.2773;;;;
44734;BME280;30462;52.446;-1.930;2023-04-25T02:35:18;100331.6602;;;;
44734;BME280;30462;52.446;-1.930;2023-04-25T02:36:18;100330.6133;;;;
44734;BME280;30462;52.446;-1.930;2023-04-25T02:37:17;100331.2617;;;;
44734;BME280;30462;52.446;-1.930;2023-04-25T02:38:17;100329.8477;;;;
44734;BME280;30462;52.446;-1.930;2023-04-25T02:39:17;100330.1992;;;;
44734;BME280;30462;52.446;-1.930;2023-04-25T02:40:18;100331.1289;;;;
44734;BME280;30462;52.446;-1.930;2023-04-25T02:41:18;100332.1055;;;;
44734;BME280;30462;52.446;-1.930;2023-04-25T02:42:18;100332.4844;;;;
44734;BME280;30462;52.446;-1.930;2023-04-25T02:43:18;100333.668;;;;
44734;BME280;30462;52.446;-1.930;2023-04-25T02:44:18;100334.5508;;;;
44734;BME280;30462;52.446;-1.930;2023-04-25T02:45:18;100338.4453;;;;
44734;BME280;30462;52.446;-1.930;2023-04-25T02:46:18;100335.6758;;;;
44734;BME280;30462;52.446;-1.930;2023-04-25T02:47:18;100336.2031;;;;
44734;BME280;30462;52.446;-1.930;2023-04-25T02:48:18;100336.5117;;;;
44734;BME280;30462;52.446;-1.930;2023-04-25T02:49:18;100334.5352;;;;
44734;BME280;30462;52.446;-1.930;2023-04-25T02:50:19;100337.3438;;;;
44734;BME280;30462;52.446;-1.930;2023-04-25T02:51:18;100340.8047;;;;
44734;BME280;30462;52.446;-1.930;2023-04-25T02:52:18;100341.1016;;;;
44734;BME280;30462;52.446;-1.930;2023-04-25T02:53:17;100343.4336;;;;
44734;BME280;30462;52.446;-1.930;2023-04-25T02:54:18;100339.8633;;;;
44734;BME280;30462;52.446;-1.930;2023-04-25T02:55:18;100336.3945;;;;
44734;BME280;30462;52.446;-1.930;2023-04-25T02:56:18;100338.8125;;;;
44734;BME280;30462;52.446;-1.930;2023-04-25T02:57:18;100335.5391;;;;
44734;BME280;30462;52.446;-1.930;2023-04-25T02:58:18;100337.8281;;;;
44734;BME280;30462;52.446;-1.930;2023-04-25T02:59:18;100338.0313;;;;
44734;BME280;30462;52.446;-1.930;2023-04-25T03:00:18;100334.8477;;;;
44734;BME280;30462;52.446;-1.930;2023-04-25T03:01:18;100336.2344;;;;
44734;BME280;30462;52.446;-1.930;2023-04-25T03:02:18;100337.6055;;;;
44734;BME280;30462;52.446;-1.930;2023-04-25T03:03:18;100335.9531;;;;
44734;BME280;30462;52.446;-1.930;2023-04-25T03:04:18;100338.7383;;;;
44734;BME280;30462;52.446;-1.930;2023-04-25T03:05:18;100336.6016;;;;
44734;BME280;30462;52.446;-1.930;2023-04-25T03:06:18;100337.2773;;;;
44734;BME280;30462;52.446;-1.930;2023-04-25T03:07:18;100340.0977;;;;
44734;BME280;30462;52.446;-1.930;2023-04-25T03:08:18;100337.5039;;;;
44734;BME280;30462;52.446;-1.930;2023-04-25T03:09:18;100335.6719;;;;
44734;BME280;30462;52.446;-1.930;2023-04-25T03:10:18;100335.7617;;;;
44734;BME280;30462;52.446;-1.930;2023-04-25T03:11:17;100339.2422;;;;
44734;BME280;30462;52.446;-1.930;2023-04-25T03:12:18;100340.0273;;;;
44734;BME280;30462;52.446;-1.930;2023-04-25T03:13:17;100338.9336;;;;
44734;BME280;30462;52.446;-1.930;2023-04-25T03:14:18;100342.8555;;;;
44734;BME280;30462;52.446;-1.930;2023-04-25T03:15:18;100341.293;;;;
44734;BME280;30462;52.446;-1.930;2023-04-25T03:16:18;100344.3203;;;;
44734;BME280;30462;52.446;-1.930;2023-04-25T03:17:18;100347.0625;;;;
44734;BME280;30462;52.446;-1.930;2023-04-25T03:18:17;100348.7109;;;;
44734;BME280;30462;52.446;-1.930;2023-04-25T03:19:18;100352.3711;;;;
44734;BME280;30462;52.446;-1.930;2023-04-25T03:20:18;100351.5273;;;;
44734;BME280;30462;52.446;-1.930;2023-04-25T03:21:18;100354.6367;;;;
44734;BME280;30462;52.446;-1.930;2023-04-25T03:22:18;100354.6875;;;;
44734;BME280;30462;52.446;-1.930;2023-04-25T03:23:18;100355.5078;;;;
44734;BME280;30462;52.446;-1.930;2023-04-25T03:24:18;100358.4063;;;;
44734;BME280;30462;52.446;-1.930;2023-04-25T03:25:18;100352.875;;;;
44734;BME280;30462;52.446;-1.930;2023-04-25T03:26:18;100355.9766;;;;
44734;BME280;30462;52.446;-1.930;2023-04-25T03:27:18;100358.3242;;;;
44734;BME280;30462;52.446;-1.930;2023-04-25T03:28:18;100358.0977;;;;
44734;BME280;30462;52.446;-1.930;2023-04-25T03:29:18;100361.0273;;;;
44734;BME280;30462;52.446;-1.930;2023-04-25T03:30:18;100362.0391;;;;
44734;BME280;30462;52.446;-1.930;2023-04-25T03:31:17;100364.6133;;;;
44734;BME280;30462;52.446;-1.930;2023-04-25T03:32:17;100360.6719;;;;
44734;BME280;30462;52.446;-1.930;2023-04-25T03:33:17;100357.707;;;;
44734;BME280;30462;52.446;-1.930;2023-04-25T03:34:18;100357.4688;;;;
44734;BME280;30462;52.446;-1.930;2023-04-25T03:35:18;100358.4922;;;;
44734;BME280;30462;52.446;-1.930;2023-04-25T03:36:18;100359.2305;;;;
44734;BME280;30462;52.446;-1.930;2023-04-25T03:37:18;100358.5195;;;;
44734;BME280;30462;52.446;-1.930;2023-04-25T03:38:18;100359.2891;;;;
44734;BME280;30462;52.446;-1.930;2023-04-25T03:39:18;100360.7773;;;;
44734;BME280;30462;52.446;-1.930;2023-04-25T03:40:18;100359.8594;;;;
44734;BME280;30462;52.446;-1.930;2023-04-25T03:41:18;100361.043;;;;
44734;BME280;30462;52.446;-1.930;2023-04-25T03:42:18;100357.0313;;;;
44734;BME280;30462;52.446;-1.930;2023-04-25T03:43:19;100351.6836;;;;
44734;BME280;30462;52.446;-1.930;2023-04-25T03:44:18;100348.793;;;;
44734;BME280;30462;52.446;-1.930;2023-04-25T03:45:19;100345.4102;;;;
44734;BME280;30462;52.446;-1.930;2023-04-25T03:46:17;100345.4844;;;;
44734;BME280;30462;52.446;-1.930;2023-04-25T03:47:18;100346.4297;;;;
44734;BME280;30462;52.446;-1.930;2023-04-25T03:48:18;100351.3242;;;;
44734;BME280;30462;52.446;-1.930;2023-04-25T03:49:18;100354.6484;;;;
44734;BME280;30462;52.446;-1.930;2023-04-25T03:50:18;100353.0078;;;;
44734;BME280;30462;52.446;-1.930;2023-04-25T03:51:18;100351.1836;;;;
44734;BME280;30462;52.446;-1.930;2023-04-25T03:52:18;100353.3164;;;;
44734;BME280;30462;52.446;-1.930;2023-04-25T03:53:17;100353.3594;;;;
44734;BME280;30462;52.446;-1.930;2023-04-25T03:54:18;100354.5469;;;;
44734;BME280;30462;52.446;-1.930;2023-04-25T03:55:18;100357.0664;;;;
44734;BME280;30462;52.446;-1.930;2023-04-25T03:56:18;100355.8398;;;;
44734;BME280;30462;52.446;-1.930;2023-04-25T03:57:18;100353.9258;;;;
44734;BME280;30462;52.446;-1.930;2023-04-25T03:58:18;100352.7383;;;;
44734;BME280;30462;52.446;-1.930;2023-04-25T03:59:18;100354.9648;;;;
44734;BME280;30462;52.446;-1.930;2023-04-25T04:00:18;100353.4258;;;;
44734;BME280;30462;52.446;-1.930;2023-04-25T04:01:18;100354.5078;;;;
44734;BME280;30462;52.446;-1.930;2023-04-25T04:02:18;100354.4727;;;;
44734;BME280;30462;52.446;-1.930;2023-04-25T04:03:18;100352.8359;;;;
44734;BME280;30462;52.446;-1.930;2023-04-25T04:04:18;100354.5;;;;
44734;BME280;30462;52.446;-1.930;2023-04-25T04:05:18;100356.6992;;;;
44734;BME280;30462;52.446;-1.930;2023-04-25T04:06:18;100355.1602;;;;
44734;BME280;30462;52.446;-1.930;2023-04-25T04:07:17;100357.9297;;;;
44734;BME280;30462;52.446;-1.930;2023-04-25T04:08:18;100359.4336;;;;
44734;BME280;30462;52.446;-1.930;2023-04-25T04:09:18;100360.3672;;;;
44734;BME280;30462;52.446;-1.930;2023-04-25T04:10:18;100360.1289;;;;
44734;BME280;30462;52.446;-1.930;2023-04-25T04:11:18;100361.5391;;;;
44734;BME280;30462;52.446;-1.930;2023-04-25T04:12:17;100360.5234;;;;
44734;BME280;30462;52.446;-1.930;2023-04-25T04:13:18;100359.6445;;;;
44734;BME280;30462;52.446;-1.930;2023-04-25T04:14:18;100363.3086;;;;
44734;BME280;30462;52.446;-1.930;2023-04-25T04:15:18;100365.6289;;;;
44734;BME280;30462;52.446;-1.930;2023-04-25T04:16:18;100363.793;;;;
44734;BME280;30462;52.446;-1.930;2023-04-25T04:17:18;100363.9141;;;;
44734;BME280;30462;52.446;-1.930;2023-04-25T04:18:18;100363.6094;;;;
44734;BME280;30462;52.446;-1.930;2023-04-25T04:19:18;100361.6641;;;;
44734;BME280;30462;52.446;-1.930;2023-04-25T04:20:17;100362.8672;;;;
44734;BME280;30462;52.446;-1.930;2023-04-25T04:21:18;100362.7266;;;;
44734;BME280;30462;52.446;-1.930;2023-04-25T04:22:17;100360.8359;;;;
44734;BME280;30462;52.446;-1.930;2023-04-25T04:23:19;100362.8359;;;;
44734;BME280;30462;52.446;-1.930;2023-04-25T04:24:18;100362.7695;;;;
44734;BME280;30462;52.446;-1.930;2023-04-25T04:25:18;100366.8477;;;;
44734;BME280;30462;52.446;-1.930;2023-04-25T04:26:18;100364.043;;;;
44734;BME280;30462;52.446;-1.930;2023-04-25T04:27:18;100369.3789;;;;
44734;BME280;30462;52.446;-1.930;2023-04-25T04:28:18;100368.0625;;;;
44734;BME280;30462;52.446;-1.930;2023-04-25T04:29:18;100369.1484;;;;
44734;BME280;30462;52.446;-1.930;2023-04-25T04:30:18;100368.1445;;;;
44734;BME280;30462;52.446;-1.930;2023-04-25T04:31:18;100368.7852;;;;
44734;BME280;30462;52.446;-1.930;2023-04-25T04:32:18;100368.6641;;;;
44734;BME280;30462;52.446;-1.930;2023-04-25T04:33:18;100376.4141;;;;
44734;BME280;30462;52.446;-1.930;2023-04-25T04:34:18;100372.4844;;;;
44734;BME280;30462;52.446;-1.930;2023-04-25T04:35:18;100373.4844;;;;
44734;BME280;30462;52.446;-1.930;2023-04-25T04:36:18;100374.4766;;;;
44734;BME280;30462;52.446;-1.930;2023-04-25T04:37:18;100373.9375;;;;
44734;BME280;30462;52.446;-1.930;2023-04-25T04:38:18;100371.0195;;;;
44734;BME280;30462;52.446;-1.930;2023-04-25T04:39:18;100371;;;;
44734;BME280;30462;52.446;-1.930;2023-04-25T04:40:18;100371.2422;;;;
44734;BME280;30462;52.446;-1.930;2023-04-25T04:41:18;100372.043;;;;
44734;BME280;30462;52.446;-1.930;2023-04-25T04:42:18;100373.2188;;;;
44734;BME280;30462;52.446;-1.930;2023-04-25T04:43:18;100379.2695;;;;
44734;BME280;30462;52.446;-1.930;2023-04-25T04:44:18;100378.0313;;;;
44734;BME280;30462;52.446;-1.930;2023-04-25T04:45:17;100377.4688;;;;
44734;BME280;30462;52.446;-1.930;2023-04-25T04:46:18;100377.5;;;;
44734;BME280;30462;52.446;-1.930;2023-04-25T04:47:18;100381.332;;;;
44734;BME280;30462;52.446;-1.930;2023-04-25T04:48:18;100378.6055;;;;
44734;BME280;30462;52.446;-1.930;2023-04-25T04:49:18;100377.875;;;;
44734;BME280;30462;52.446;-1.930;2023-04-25T04:50:18;100379.5703;;;;
44734;BME280;30462;52.446;-1.930;2023-04-25T04:51:18;100381.3086;;;;
44734;BME280;30462;52.446;-1.930;2023-04-25T04:52:18;100379.9023;;;;
44734;BME280;30462;52.446;-1.930;2023-04-25T04:53:18;100386.3008;;;;
44734;BME280;30462;52.446;-1.930;2023-04-25T04:54:18;100388.2891;;;;
44734;BME280;30462;52.446;-1.930;2023-04-25T04:55:18;100389.0586;;;;
44734;BME280;30462;52.446;-1.930;2023-04-25T04:56:18;100389.3594;;;;
44734;BME280;30462;52.446;-1.930;2023-04-25T04:57:18;100390.0352;;;;
44734;BME280;30462;52.446;-1.930;2023-04-25T04:58:18;100387.7656;;;;
44734;BME280;30462;52.446;-1.930;2023-04-25T04:59:17;100387.625;;;;
44734;BME280;30462;52.446;-1.930;2023-04-25T05:00:18;100385.6641;;;;
44734;BME280;30462;52.446;-1.930;2023-04-25T05:01:18;100387.2031;;;;
44734;BME280;30462;52.446;-1.930;2023-04-25T05:02:18;100392.4414;;;;
44734;BME280;30462;52.446;-1.930;2023-04-25T05:03:18;100393.2344;;;;
44734;BME280;30462;52.446;-1.930;2023-04-25T05:04:18;100397.2891;;;;
44734;BME280;30462;52.446;-1.930;2023-04-25T05:05:18;100398.0195;;;;
44734;BME280;30462;52.446;-1.930;2023-04-25T05:06:18;100395.1211;;;;
44734;BME280;30462;52.446;-1.930;2023-04-25T05:07:18;100396.9805;;;;
44734;BME280;30462;52.446;-1.930;2023-04-25T05:08:18;100394.9414;;;;
44734;BME280;30462;52.446;-1.930;2023-04-25T05:09:18;100398.1484;;;;
44734;BME280;30462;52.446;-1.930;2023-04-25T05:10:18;100395.1445;;;;
44734;BME280;30462;52.446;-1.930;2023-04-25T05:11:18;100394.8047;;;;
44734;BME280;30462;52.446;-1.930;2023-04-25T05:12:18;100395.1328;;;;
44734;BME280;30462;52.446;-1.930;2023-04-25T05:13:17;100399.8711;;;;
44734;BME280;30462;52.446;-1.930;2023-04-25T05:14:18;100400.7031;;;;
44734;BME280;30462;52.446;-1.930;2023-04-25T05:15:18;100400.832;;;;
44734;BME280;30462;52.446;-1.930;2023-04-25T05:16:18;100406.0195;;;;
44734;BME280;30462;52.446;-1.930;2023-04-25T05:17:18;100407.4805;;;;
44734;BME280;30462;52.446;-1.930;2023-04-25T05:18:18;100406.3086;;;;
44734;BME280;30462;52.446;-1.930;2023-04-25T05:19:18;100414.8594;;;;
44734;BME280;30462;52.446;-1.930;2023-04-25T05:20:18;100414.9453;;;;
44734;BME280;30462;52.446;-1.930;2023-04-25T05:21:18;100417.9688;;;;
44734;BME280;30462;52.446;-1.930;2023-04-25T05:22:18;100419.9258;;;;
44734;BME280;30462;52.446;-1.930;2023-04-25T05:23:18;100419.4297;;;;
44734;BME280;30462;52.446;-1.930;2023-04-25T05:24:17;100417.2031;;;;
44734;BME280;30462;52.446;-1.930;2023-04-25T05:25:17;100419.9141;;;;
44734;BME280;30462;52.446;-1.930;2023-04-25T05:26:18;100420.1172;;;;
44734;BME280;30462;52.446;-1.930;2023-04-25T05:27:18;100421.5781;;;;
44734;BME280;30462;52.446;-1.930;2023-04-25T05:28:18;100414.2305;;;;
44734;BME280;30462;52.446;-1.930;2023-04-25T05:29:18;100417.9063;;;;
44734;BME280;30462;52.446;-1.930;2023-04-25T05:30:18;100417.3203;;;;
44734;BME280;30462;52.446;-1.930;2023-04-25T05:31:18;100423.7461;;;;
44734;BME280;30462;52.446;-1.930;2023-04-25T05:32:18;100424.332;;;;
44734;BME280;30462;52.446;-1.930;2023-04-25T05:33:18;100424.6211;;;;
44734;BME280;30462;52.446;-1.930;2023-04-25T05:34:18;100429.0742;;;;
44734;BME280;30462;52.446;-1.930;2023-04-25T05:35:18;100427.3633;;;;
44734;BME280;30462;52.446;-1.930;2023-04-25T05:36:18;100426.543;;;;
44734;BME280;30462;52.446;-1.930;2023-04-25T05:37:18;100425.125;;;;
44734;BME280;30462;52.446;-1.930;2023-04-25T05:38:18;100422.3789;;;;
44734;BME280;30462;52.446;-1.930;2023-04-25T05:39:18;100424.875;;;;
44734;BME280;30462;52.446;-1.930;2023-04-25T05:40:18;100428.9141;;;;
44734;BME280;30462;52.446;-1.930;2023-04-25T05:41:18;100431.6836;;;;
44734;BME280;30462;52.446;-1.930;2023-04-25T05:42:18;100429.582;;;;
44734;BME280;30462;52.446;-1.930;2023-04-25T05:43:18;100436.2695;;;;
44734;BME280;30462;52.446;-1.930;2023-04-25T05:44:18;100434.957;;;;
44734;BME280;30462;52.446;-1.930;2023-04-25T05:45:18;100436.1914;;;;
44734;BME280;30462;52.446;-1.930;2023-04-25T05:46:18;100430.3594;;;;